Time;durP1;ratioP1;P1;durP2;ratioP2;P2;SDS_P1;SDS_P2;PMS_P1;PMS_P2;Temp;Humidity;BMP_temperature;BMP_pressure;BME280_temperature;BME280_humidity;BME280_pressure;Samples;Min_cycle;Max_cycle;Signal;HPM_P1;HPM_P2
2022/06/12 00:01:18;;;;;;;31.02;6.65;;;;;;;;;;6219659;23;20008;-68
2022/06/12 00:03:43;;;;;;;30.85;6.30;;;;;;;;;;6246255;23;20432;-69
2022/06/12 00:06:09;;;;;;;28.20;6.13;;;;;;;;;;6246362;23;19992;-68
2022/06/12 00:08:35;;;;;;;27.88;6.05;;;;;;;;;;6245711;23;20004;-69
2022/06/12 00:11:01;;;;;;;26.38;5.80;;;;;;;;;;6246225;23;20340;-68
2022/06/12 00:13:29;;;;;;;23.35;6.18;;;;;;;;;;6246376;23;20010;-69
2022/06/12 00:15:54;;;;;;;32.22;6.25;;;;;;;;;;6246244;23;20033;-69
2022/06/12 00:18:20;;;;;;;35.17;6.10;;;;;;;;;;6245998;23;20027;-69
2022/06/12 00:20:45;;;;;;;24.65;5.72;;;;;;;;;;6245833;23;20095;-69
2022/06/12 00:23:11;;;;;;;18.35;5.30;;;;;;;;;;6246009;23;20019;-68
2022/06/12 00:25:37;;;;;;;19.60;5.63;;;;;;;;;;6245959;23;20087;-69
2022/06/12 00:28:02;;;;;;;32.63;6.68;;;;;;;;;;6246075;23;20403;-68
2022/06/12 00:30:27;;;;;;;26.27;6.82;;;;;;;;;;6244683;23;20004;-69
2022/06/12 00:32:54;;;;;;;24.95;6.45;;;;;;;;;;6245589;23;20335;-69
2022/06/12 00:35:25;;;;;;;33.20;6.15;;;;;;;;;;6245967;23;19988;-69
2022/06/12 00:37:50;;;;;;;26.77;5.88;;;;;;;;;;6246072;23;20018;-69
2022/06/12 00:40:17;;;;;;;25.38;5.57;;;;;;;;;;6245907;23;20036;-69
2022/06/12 00:42:45;;;;;;;28.50;6.22;;;;;;;;;;6219152;23;20023;-69
2022/06/12 00:45:29;;;;;;;35.80;6.20;;;;;;;;;;6245732;23;20486;-69
2022/06/12 00:47:57;;;;;;;21.55;5.72;;;;;;;;;;6245940;23;20127;-69
2022/06/12 00:50:23;;;;;;;20.17;5.63;;;;;;;;;;6246010;23;20444;-69
2022/06/12 00:52:50;;;;;;;28.13;6.63;;;;;;;;;;6246047;23;19996;-69
2022/06/12 00:55:34;;;;;;;27.83;5.88;;;;;;;;;;6246014;23;19992;-68
2022/06/12 00:58:05;;;;;;;33.22;6.18;;;;;;;;;;6245902;23;20000;-68
2022/06/12 01:00:31;;;;;;;25.88;5.97;;;;;;;;;;6245778;23;20008;-69
2022/06/12 01:02:58;;;;;;;23.65;5.95;;;;;;;;;;6245831;23;20083;-69
2022/06/12 01:08:08;;;;;;;20.92;6.05;;;;;;;;;;6245665;23;20066;-69
2022/06/12 01:10:34;;;;;;;32.78;6.50;;;;;;;;;;6245621;23;20004;-69
2022/06/12 01:13:01;;;;;;;24.10;6.10;;;;;;;;;;6245963;23;20012;-69
2022/06/12 01:15:30;;;;;;;35.08;7.40;;;;;;;;;;6245796;23;20078;-69
2022/06/12 01:17:57;;;;;;;30.25;7.45;;;;;;;;;;6245979;23;20335;-68
2022/06/12 01:20:25;;;;;;;28.50;6.82;;;;;;;;;;6245419;23;20065;-69
2022/06/12 01:23:09;;;;;;;24.77;6.68;;;;;;;;;;6245417;23;20360;-69
2022/06/12 01:26:03;;;;;;;27.38;6.57;;;;;;;;;;6243107;23;20008;-68
2022/06/12 01:28:31;;;;;;;27.20;5.85;;;;;;;;;;6245044;23;20004;-69
2022/06/12 01:31:02;;;;;;;19.92;4.95;;;;;;;;;;6245212;23;20356;-69
2022/06/12 01:33:33;;;;;;;25.42;6.03;;;;;;;;;;6245284;23;20004;-69
2022/06/12 01:36:08;;;;;;;26.60;5.68;;;;;;;;;;6247798;23;20000;-68
2022/06/12 01:38:52;;;;;;;40.88;6.22;;;;;;;;;;6248623;23;20023;-68
2022/06/12 01:41:25;;;;;;;26.02;5.75;;;;;;;;;;6249407;23;20004;-68
2022/06/12 01:43:54;;;;;;;33.42;6.25;;;;;;;;;;6248922;23;20016;-69
2022/06/12 01:46:22;;;;;;;26.23;5.70;;;;;;;;;;6249131;23;19996;-69
2022/06/12 01:49:07;;;;;;;31.08;6.13;;;;;;;;;;6248702;23;20442;-68
2022/06/12 01:51:37;;;;;;;26.63;5.85;;;;;;;;;;6248840;23;20004;-68
2022/06/12 01:54:21;;;;;;;31.45;6.57;;;;;;;;;;6248910;23;20082;-68
2022/06/12 01:56:50;;;;;;;21.05;5.35;;;;;;;;;;6249042;23;20063;-68
2022/06/12 01:59:19;;;;;;;38.25;5.95;;;;;;;;;;6248606;23;20083;-69
2022/06/12 02:01:56;;;;;;;32.63;5.60;;;;;;;;;;6248754;23;19996;-68
2022/06/12 02:04:24;;;;;;;22.58;5.80;;;;;;;;;;6249343;23;20004;-68
2022/06/12 02:06:59;;;;;;;26.70;6.90;;;;;;;;;;6248892;23;20016;-69
2022/06/12 02:09:46;;;;;;;23.55;5.50;;;;;;;;;;6249172;23;20027;-69
2022/06/12 02:15:02;;;;;;;32.30;5.82;;;;;;;;;;6248559;23;20143;-68
2022/06/12 02:17:30;;;;;;;26.48;5.32;;;;;;;;;;6248989;23;20032;-68
2022/06/12 02:19:56;;;;;;;18.75;5.15;;;;;;;;;;6248823;23;20020;-69
2022/06/12 02:22:24;;;;;;;33.53;6.15;;;;;;;;;;6248361;23;20054;-68
2022/06/12 02:25:04;;;;;;;21.40;5.30;;;;;;;;;;6248659;23;20384;-68
2022/06/12 02:27:40;;;;;;;20.98;5.68;;;;;;;;;;6248977;23;20004;-68
2022/06/12 02:30:10;;;;;;;26.48;5.78;;;;;;;;;;6248865;23;20008;-69
2022/06/12 02:32:40;;;;;;;29.02;5.40;;;;;;;;;;6248787;23;20008;-69
2022/06/12 02:35:11;;;;;;;31.40;5.47;;;;;;;;;;6248449;23;20141;-69
2022/06/12 02:37:39;;;;;;;25.95;5.80;;;;;;;;;;6248530;23;20012;-68
2022/06/12 02:40:08;;;;;;;35.85;6.35;;;;;;;;;;6248345;23;20023;-69
2022/06/12 02:42:37;;;;;;;25.83;5.55;;;;;;;;;;6248795;23;20374;-68
2022/06/12 02:45:06;;;;;;;23.45;5.65;;;;;;;;;;6248841;23;20383;-68
2022/06/12 02:47:33;;;;;;;27.73;6.22;;;;;;;;;;6247435;23;20062;-68
2022/06/12 02:49:59;;;;;;;20.60;5.45;;;;;;;;;;6247093;23;20413;-68
2022/06/12 02:52:45;;;;;;;32.78;5.28;;;;;;;;;;6247019;23;20007;-68
2022/06/12 02:55:17;;;;;;;24.65;5.13;;;;;;;;;;6247348;23;20019;-68
2022/06/12 02:58:04;;;;;;;20.52;4.75;;;;;;;;;;6246765;23;20625;-68
2022/06/12 03:00:35;;;;;;;21.10;4.75;;;;;;;;;;6247114;23;20087;-69
2022/06/12 03:03:00;;;;;;;28.65;5.32;;;;;;;;;;6247128;23;20032;-68
2022/06/12 03:05:28;;;;;;;26.05;5.50;;;;;;;;;;6247258;23;20004;-68
2022/06/12 03:08:00;;;;;;;26.52;5.65;;;;;;;;;;6247086;23;20000;-69
2022/06/12 03:10:27;;;;;;;25.73;5.70;;;;;;;;;;6246692;23;20058;-69
2022/06/12 03:12:53;;;;;;;23.65;5.55;;;;;;;;;;6247090;23;20012;-68
2022/06/12 03:15:44;;;;;;;26.25;5.28;;;;;;;;;;6246963;23;19995;-69
2022/06/12 03:18:12;;;;;;;23.75;5.45;;;;;;;;;;6199895;23;20031;-69
2022/06/12 03:21:01;;;;;;;25.88;5.30;;;;;;;;;;6247007;23;20000;-68
2022/06/12 03:23:35;;;;;;;28.25;5.57;;;;;;;;;;6230717;23;20322;-68
2022/06/12 03:26:02;;;;;;;18.08;4.45;;;;;;;;;;6246962;23;20004;-68
2022/06/12 03:28:30;;;;;;;24.15;4.80;;;;;;;;;;6247167;23;20028;-68
2022/06/12 03:31:01;;;;;;;26.08;5.40;;;;;;;;;;6246749;23;20050;-68
2022/06/12 03:33:33;;;;;;;31.95;5.05;;;;;;;;;;6246807;23;20012;-69
2022/06/12 03:36:03;;;;;;;26.27;4.95;;;;;;;;;;6246857;23;20000;-68
2022/06/12 03:38:28;;;;;;;24.48;4.55;;;;;;;;;;6246241;23;20012;-69
2022/06/12 03:40:53;;;;;;;25.70;5.25;;;;;;;;;;6246885;23;20522;-68
2022/06/12 03:43:21;;;;;;;30.80;4.95;;;;;;;;;;6246945;23;20428;-68
2022/06/12 03:45:54;;;;;;;23.50;4.75;;;;;;;;;;6246219;23;20444;-68
2022/06/12 03:48:20;;;;;;;24.85;5.07;;;;;;;;;;6246548;23;20001;-69
2022/06/12 03:51:08;;;;;;;32.83;5.22;;;;;;;;;;6246046;23;20008;-68
2022/06/12 03:53:46;;;;;;;35.17;5.35;;;;;;;;;;6229671;23;20026;-69
2022/06/12 03:59:23;;;;;;;19.60;4.78;;;;;;;;;;6245085;23;20070;-68
2022/06/12 04:01:49;;;;;;;22.50;5.55;;;;;;;;;;6246461;23;20095;-71
2022/06/12 04:04:15;;;;;;;24.92;4.95;;;;;;;;;;6246128;23;20000;-69
2022/06/12 04:06:41;;;;;;;26.02;5.22;;;;;;;;;;6246491;23;19988;-68
2022/06/12 04:09:12;;;;;;;29.83;5.07;;;;;;;;;;6246289;23;20016;-68
2022/06/12 04:11:38;;;;;;;28.02;5.20;;;;;;;;;;6246258;23;20002;-69
2022/06/12 04:14:05;;;;;;;21.60;4.72;;;;;;;;;;6246342;23;20012;-69
2022/06/12 04:16:36;;;;;;;23.63;4.80;;;;;;;;;;6246005;23;20420;-69
2022/06/12 04:19:03;;;;;;;20.92;4.65;;;;;;;;;;6246394;23;20004;-68
2022/06/12 04:21:28;;;;;;;22.65;4.50;;;;;;;;;;6246456;23;20313;-69
2022/06/12 04:24:03;;;;;;;25.83;4.40;;;;;;;;;;6245932;23;20011;-69
2022/06/12 04:26:33;;;;;;;23.25;5.00;;;;;;;;;;6246321;23;20008;-69
2022/06/12 04:29:01;;;;;;;20.88;4.68;;;;;;;;;;6246412;23;20005;-69
2022/06/12 04:31:27;;;;;;;15.73;3.80;;;;;;;;;;6246462;23;19996;-69
2022/06/12 04:34:01;;;;;;;20.33;5.10;;;;;;;;;;6246128;23;20099;-68
2022/06/12 04:36:27;;;;;;;24.08;4.28;;;;;;;;;;6246159;23;20008;-69
2022/06/12 04:38:53;;;;;;;23.58;4.40;;;;;;;;;;6246008;23;20015;-68
2022/06/12 04:41:22;;;;;;;19.98;4.30;;;;;;;;;;6246112;23;20053;-69
2022/06/12 04:43:47;;;;;;;13.55;4.70;;;;;;;;;;6246074;23;19996;-69
2022/06/12 04:46:13;;;;;;;18.08;3.45;;;;;;;;;;6246130;23;20368;-69
2022/06/12 04:48:41;;;;;;;11.52;3.30;;;;;;;;;;6245392;23;20008;-69
2022/06/12 04:51:07;;;;;;;15.50;2.83;;;;;;;;;;6246161;23;20018;-68
2022/06/12 04:53:32;;;;;;;14.20;3.55;;;;;;;;;;6246272;23;20019;-69
2022/06/12 04:55:58;;;;;;;36.33;3.92;;;;;;;;;;6246063;23;20008;-69
2022/06/12 04:58:23;;;;;;;67.13;5.47;;;;;;;;;;6245843;23;19989;-69
2022/06/12 05:00:49;;;;;;;7.10;2.40;;;;;;;;;;6245743;23;20058;-69
2022/06/12 05:03:14;;;;;;;22.92;3.38;;;;;;;;;;6245598;23;20008;-69
2022/06/12 05:05:40;;;;;;;17.27;2.75;;;;;;;;;;6245559;23;20000;-69
2022/06/12 05:08:05;;;;;;;63.95;4.80;;;;;;;;;;6245600;23;20371;-69
2022/06/12 05:10:30;;;;;;;8.32;3.08;;;;;;;;;;6245684;23;20008;-69
2022/06/12 05:12:56;;;;;;;10.30;2.70;;;;;;;;;;6245340;23;20427;-70
2022/06/12 05:15:21;;;;;;;11.75;3.15;;;;;;;;;;6246036;23;20050;-69
2022/06/12 05:17:47;;;;;;;11.93;3.45;;;;;;;;;;6245540;23;20420;-70
2022/06/12 05:20:16;;;;;;;6.25;2.60;;;;;;;;;;6245596;23;20070;-69
2022/06/12 05:22:41;;;;;;;7.07;2.40;;;;;;;;;;6245685;23;20012;-69
2022/06/12 05:25:06;;;;;;;6.28;2.00;;;;;;;;;;6246198;23;20424;-69
2022/06/12 05:27:32;;;;;;;7.63;2.20;;;;;;;;;;6245887;23;19992;-69
2022/06/12 05:29:58;;;;;;;6.10;2.20;;;;;;;;;;6245593;23;20003;-70
2022/06/12 05:32:23;;;;;;;7.20;2.35;;;;;;;;;;6245860;23;20070;-70
2022/06/12 05:34:48;;;;;;;6.05;1.77;;;;;;;;;;6245645;23;20393;-70
2022/06/12 05:37:14;;;;;;;4.35;1.92;;;;;;;;;;6245551;23;20074;-70
2022/06/12 05:39:40;;;;;;;3.75;2.00;;;;;;;;;;6245318;23;20494;-70
2022/06/12 05:42:06;;;;;;;7.32;2.05;;;;;;;;;;6245611;23;20007;-70
2022/06/12 05:44:31;;;;;;;5.55;2.30;;;;;;;;;;6246229;23;20430;-71
2022/06/12 05:46:57;;;;;;;3.65;2.05;;;;;;;;;;6245132;23;20464;-70
2022/06/12 05:49:22;;;;;;;10.90;2.10;;;;;;;;;;6245619;23;19996;-71
2022/06/12 05:51:48;;;;;;;4.35;1.75;;;;;;;;;;6245697;23;20005;-71
2022/06/12 05:54:13;;;;;;;5.68;2.00;;;;;;;;;;6245512;23;20432;-71
2022/06/12 05:56:39;;;;;;;4.13;1.80;;;;;;;;;;6245758;23;20423;-71
2022/06/12 05:59:04;;;;;;;6.03;2.40;;;;;;;;;;6245252;23;20435;-71
2022/06/12 06:01:30;;;;;;;7.45;2.08;;;;;;;;;;6245792;23;20046;-71
2022/06/12 06:03:55;;;;;;;5.38;2.42;;;;;;;;;;6245198;23;20019;-71
2022/06/12 06:06:26;;;;;;;8.32;2.50;;;;;;;;;;6245773;23;19996;-71
2022/06/12 06:08:51;;;;;;;4.05;1.80;;;;;;;;;;6245519;23;20027;-71
2022/06/12 06:11:16;;;;;;;12.40;2.10;;;;;;;;;;6245744;23;19997;-71
2022/06/12 06:13:42;;;;;;;7.38;2.58;;;;;;;;;;6245493;23;20016;-71
2022/06/12 06:16:07;;;;;;;6.38;2.00;;;;;;;;;;6245843;23;20004;-71
2022/06/12 06:18:33;;;;;;;6.05;2.15;;;;;;;;;;6245809;23;20447;-71
2022/06/12 06:20:58;;;;;;;5.70;2.00;;;;;;;;;;6245340;23;20004;-71
2022/06/12 06:23:23;;;;;;;6.40;2.15;;;;;;;;;;6247038;23;20006;-71
2022/06/12 06:25:48;;;;;;;8.50;2.85;;;;;;;;;;6245898;23;20004;-71
2022/06/12 06:28:14;;;;;;;14.77;3.35;;;;;;;;;;6247451;23;20000;-71
2022/06/12 06:30:40;;;;;;;5.95;2.13;;;;;;;;;;6247133;23;20498;-71
2022/06/12 06:33:05;;;;;;;10.02;2.67;;;;;;;;;;6247403;23;19999;-71
2022/06/12 06:35:31;;;;;;;14.32;3.22;;;;;;;;;;6247586;23;20005;-71
2022/06/12 06:37:57;;;;;;;10.43;2.90;;;;;;;;;;6247342;23;20024;-71
2022/06/12 06:40:24;;;;;;;10.80;2.85;;;;;;;;;;6247325;23;20014;-71
2022/06/12 06:42:49;;;;;;;9.77;3.42;;;;;;;;;;6247439;23;20023;-72
2022/06/12 06:47:59;;;;;;;8.45;3.03;;;;;;;;;;6246839;23;20055;-71
2022/06/12 06:50:25;;;;;;;12.52;2.92;;;;;;;;;;6247024;23;20004;-72
2022/06/12 06:52:50;;;;;;;11.35;3.50;;;;;;;;;;6247331;23;20030;-71
2022/06/12 06:55:16;;;;;;;13.02;3.05;;;;;;;;;;6246535;23;20368;-71
2022/06/12 06:57:43;;;;;;;7.45;2.70;;;;;;;;;;6247197;23;20004;-71
2022/06/12 07:00:08;;;;;;;8.73;3.00;;;;;;;;;;6247484;23;20003;-71
2022/06/12 07:02:34;;;;;;;10.95;3.10;;;;;;;;;;6247110;23;20380;-71
2022/06/12 07:04:59;;;;;;;12.35;3.03;;;;;;;;;;6247032;23;20062;-72
2022/06/12 07:07:24;;;;;;;10.98;2.85;;;;;;;;;;6246976;23;19996;-71
2022/06/12 07:09:50;;;;;;;11.35;2.95;;;;;;;;;;6247125;23;20065;-72
2022/06/12 07:12:15;;;;;;;11.30;3.20;;;;;;;;;;6247069;23;20008;-71
2022/06/12 07:14:41;;;;;;;10.98;2.75;;;;;;;;;;6247240;23;20393;-71
2022/06/12 07:17:06;;;;;;;12.07;3.03;;;;;;;;;;6246819;23;19992;-71
2022/06/12 07:19:32;;;;;;;9.73;2.97;;;;;;;;;;6246674;23;20084;-72
2022/06/12 07:21:58;;;;;;;9.52;3.10;;;;;;;;;;6246444;23;20000;-72
2022/06/12 07:24:23;;;;;;;13.13;3.55;;;;;;;;;;6245413;23;20047;-71
2022/06/12 07:26:48;;;;;;;11.52;3.03;;;;;;;;;;6246922;23;20016;-72
2022/06/12 07:29:16;;;;;;;11.57;2.95;;;;;;;;;;6246869;23;19996;-72
2022/06/12 07:31:41;;;;;;;11.60;3.63;;;;;;;;;;6237417;23;19999;-72
2022/06/12 07:34:07;;;;;;;11.70;3.00;;;;;;;;;;6243111;23;20008;-72
2022/06/12 07:36:34;;;;;;;10.90;2.90;;;;;;;;;;6243180;23;19999;-72
2022/06/12 07:39:00;;;;;;;11.90;2.83;;;;;;;;;;6243730;23;20018;-72
2022/06/12 07:41:25;;;;;;;10.48;2.97;;;;;;;;;;6242871;23;20028;-72
2022/06/12 07:43:50;;;;;;;12.37;3.10;;;;;;;;;;6243332;23;20012;-72
2022/06/12 07:46:17;;;;;;;9.77;2.95;;;;;;;;;;6244228;23;20201;-72
2022/06/12 07:48:42;;;;;;;11.93;3.13;;;;;;;;;;6244008;23;20050;-72
2022/06/12 07:51:10;;;;;;;8.43;2.65;;;;;;;;;;6245793;23;20344;-72
2022/06/12 07:53:36;;;;;;;13.48;3.22;;;;;;;;;;6245621;23;20363;-72
2022/06/12 07:56:02;;;;;;;10.85;3.10;;;;;;;;;;6246670;23;20000;-72
2022/06/12 07:58:28;;;;;;;15.15;3.30;;;;;;;;;;6246152;23;20398;-72
2022/06/12 08:00:55;;;;;;;8.60;2.78;;;;;;;;;;6246492;23;20001;-72
2022/06/12 08:03:20;;;;;;;9.45;3.00;;;;;;;;;;6246044;23;20125;-72
2022/06/12 08:05:45;;;;;;;7.45;2.65;;;;;;;;;;6246475;23;20421;-72
2022/06/12 08:08:10;;;;;;;13.10;3.60;;;;;;;;;;6246421;23;20427;-72
2022/06/12 08:10:36;;;;;;;13.40;3.13;;;;;;;;;;6246479;23;20252;-72
2022/06/12 08:13:03;;;;;;;9.18;3.13;;;;;;;;;;6246040;23;20304;-70
2022/06/12 08:15:28;;;;;;;10.88;3.33;;;;;;;;;;6246424;23;20054;-72
2022/06/12 08:17:56;;;;;;;10.32;2.80;;;;;;;;;;6245941;23;20008;-72
2022/06/12 08:20:24;;;;;;;17.88;3.17;;;;;;;;;;6246468;23;19996;-72
2022/06/12 08:22:50;;;;;;;13.75;3.35;;;;;;;;;;6246038;23;20004;-72
2022/06/12 08:25:15;;;;;;;12.32;3.25;;;;;;;;;;6246278;23;20015;-72
2022/06/12 08:27:40;;;;;;;14.18;3.40;;;;;;;;;;6246071;23;19996;-72
2022/06/12 08:30:07;;;;;;;10.45;2.88;;;;;;;;;;6219399;23;20316;-71
2022/06/12 08:32:32;;;;;;;11.63;2.88;;;;;;;;;;6246180;23;20440;-72
2022/06/12 08:35:00;;;;;;;11.73;3.20;;;;;;;;;;6246508;23;20039;-72
2022/06/12 08:37:28;;;;;;;9.07;2.83;;;;;;;;;;6246262;23;20422;-72
2022/06/12 08:39:53;;;;;;;9.88;2.60;;;;;;;;;;6246797;23;20012;-72
2022/06/12 08:42:29;;;;;;;11.63;2.72;;;;;;;;;;6246326;23;20004;-72
2022/06/12 08:44:54;;;;;;;11.30;2.92;;;;;;;;;;6246087;23;20065;-72
2022/06/12 08:47:22;;;;;;;9.38;2.80;;;;;;;;;;6219588;23;20008;-72
2022/06/12 08:49:48;;;;;;;11.82;3.20;;;;;;;;;;6246565;23;19993;-73
2022/06/12 08:52:13;;;;;;;11.93;2.60;;;;;;;;;;6246521;23;20035;-72
2022/06/12 08:54:43;;;;;;;12.50;3.07;;;;;;;;;;6246307;23;20221;-73
2022/06/12 08:57:10;;;;;;;7.85;2.30;;;;;;;;;;6246273;23;20336;-70
2022/06/12 08:59:38;;;;;;;10.57;2.60;;;;;;;;;;6246036;23;20051;-70
2022/06/12 09:02:04;;;;;;;8.20;2.75;;;;;;;;;;6245822;23;20436;-72
2022/06/12 09:04:29;;;;;;;9.75;2.60;;;;;;;;;;6245927;23;20432;-72
2022/06/12 09:06:54;;;;;;;13.40;2.97;;;;;;;;;;6246129;23;20016;-72
2022/06/12 09:09:20;;;;;;;13.87;2.90;;;;;;;;;;6246038;23;20031;-72
2022/06/12 09:11:51;;;;;;;10.52;2.50;;;;;;;;;;6219092;23;20241;-72
2022/06/12 09:14:32;;;;;;;10.10;2.80;;;;;;;;;;6245690;23;20424;-72
2022/06/12 09:17:05;;;;;;;12.27;2.33;;;;;;;;;;6246118;23;20015;-72
2022/06/12 09:19:30;;;;;;;;;;;;;;;;;;6246398;23;20004;-72
2022/06/12 09:22:09;;;;;;;10.70;2.63;;;;;;;;;;6246183;23;19946;-71
2022/06/12 09:24:39;;;;;;;7.47;2.38;;;;;;;;;;6245864;23;20016;-71
2022/06/12 09:27:08;;;;;;;11.75;2.47;;;;;;;;;;6245728;23;20324;-70
2022/06/12 09:29:45;;;;;;;8.75;2.45;;;;;;;;;;6246046;23;20065;-70
2022/06/12 09:32:31;;;;;;;9.65;2.28;;;;;;;;;;6245382;23;20028;-72
2022/06/12 09:35:03;;;;;;;9.15;2.70;;;;;;;;;;6245257;23;20007;-70
2022/06/12 09:40:37;;;;;;;10.52;2.58;;;;;;;;;;6245584;23;20035;-70
2022/06/12 09:43:02;;;;;;;10.63;2.80;;;;;;;;;;6245274;23;20008;-72
2022/06/12 09:45:27;;;;;;;8.68;2.25;;;;;;;;;;6244825;23;20423;-72
2022/06/12 09:48:01;;;;;;;9.30;2.25;;;;;;;;;;6245296;23;20004;-72
2022/06/12 09:50:27;;;;;;;15.48;3.30;;;;;;;;;;6245552;23;19993;-72
2022/06/12 09:53:04;;;;;;;11.68;2.70;;;;;;;;;;6245937;23;20014;-72
2022/06/12 09:55:55;;;;;;;10.30;2.53;;;;;;;;;;6245728;23;19996;-72
2022/06/12 09:58:25;;;;;;;14.82;2.67;;;;;;;;;;6241211;23;20082;-72
2022/06/12 10:00:50;;;;;;;12.15;2.38;;;;;;;;;;6247986;23;19995;-72
2022/06/12 10:03:19;;;;;;;10.00;2.47;;;;;;;;;;6247722;23;20012;-72
2022/06/12 10:05:48;;;;;;;9.27;2.33;;;;;;;;;;6247812;23;20418;-72
2022/06/12 10:08:16;;;;;;;10.60;2.20;;;;;;;;;;6247837;23;20392;-72
2022/06/12 10:10:44;;;;;;;10.65;2.60;;;;;;;;;;6248304;23;20000;-72
2022/06/12 10:13:12;;;;;;;13.48;2.63;;;;;;;;;;6247821;23;20004;-72
2022/06/12 10:15:40;;;;;;;10.90;2.90;;;;;;;;;;6247818;23;19996;-72
2022/06/12 10:18:17;;;;;;;9.80;2.75;;;;;;;;;;6246905;23;20008;-72
2022/06/12 10:20:47;;;;;;;12.43;2.83;;;;;;;;;;6247178;23;20004;-72
2022/06/12 10:23:13;;;;;;;11.23;2.65;;;;;;;;;;6247394;23;20019;-72
2022/06/12 10:25:40;;;;;;;10.90;2.75;;;;;;;;;;6247712;23;19993;-72
2022/06/12 10:28:15;;;;;;;10.25;2.67;;;;;;;;;;6247202;23;20420;-72
2022/06/12 10:30:44;;;;;;;10.27;2.70;;;;;;;;;;6247652;23;20000;-72
2022/06/12 10:33:28;;;;;;;10.15;3.08;;;;;;;;;;6247017;23;20000;-72
2022/06/12 10:35:54;;;;;;;11.35;2.88;;;;;;;;;;6247498;23;20011;-72
2022/06/12 10:38:24;;;;;;;9.55;2.53;;;;;;;;;;6246451;23;20094;-72
2022/06/12 10:40:51;;;;;;;9.00;2.40;;;;;;;;;;6247381;23;20008;-72
2022/06/12 10:43:27;;;;;;;11.55;2.70;;;;;;;;;;6246615;23;20435;-72
2022/06/12 10:45:57;;;;;;;12.13;3.15;;;;;;;;;;6247111;23;20004;-72
2022/06/12 10:48:29;;;;;;;9.55;2.00;;;;;;;;;;6247107;23;20087;-72
2022/06/12 10:50:55;;;;;;;7.50;2.33;;;;;;;;;;6247305;23;20431;-71
2022/06/12 10:53:22;;;;;;;10.65;2.60;;;;;;;;;;6247475;23;20023;-72
2022/06/12 10:56:00;;;;;;;8.55;2.53;;;;;;;;;;6247125;23;20095;-71
2022/06/12 10:58:37;;;;;;;10.95;2.60;;;;;;;;;;6247154;23;20078;-71
2022/06/12 11:01:08;;;;;;;7.22;2.30;;;;;;;;;;6246850;23;20032;-72
2022/06/12 11:03:43;;;;;;;10.13;2.15;;;;;;;;;;6246762;23;20015;-72
2022/06/12 11:06:19;;;;;;;14.20;2.58;;;;;;;;;;6246449;23;20004;-72
2022/06/12 11:09:02;;;;;;;13.43;2.80;;;;;;;;;;6245851;23;20008;-71
2022/06/12 11:11:27;;;;;;;;;;;;;;;;;;6246955;23;20356;-72
2022/06/12 11:14:11;;;;;;;10.27;2.45;;;;;;;;;;6246799;23;20013;-71
2022/06/12 11:16:37;;;;;;;10.73;2.30;;;;;;;;;;6246957;23;20044;-71
2022/06/12 11:19:05;;;;;;;12.55;2.00;;;;;;;;;;6247118;23;20011;-71
2022/06/12 11:21:39;;;;;;;10.40;2.33;;;;;;;;;;6247088;23;20030;-71
2022/06/12 11:24:33;;;;;;;9.77;2.20;;;;;;;;;;6246531;23;20012;-71
2022/06/12 11:27:11;;;;;;;7.50;2.35;;;;;;;;;;6220159;23;20420;-71
2022/06/12 11:29:39;;;;;;;13.63;2.83;;;;;;;;;;6246476;23;20030;-70
2022/06/12 11:32:11;;;;;;;9.43;2.50;;;;;;;;;;6246441;23;20062;-71
2022/06/12 11:34:36;;;;;;;8.45;2.13;;;;;;;;;;6246244;23;20507;-70
2022/06/12 11:37:13;;;;;;;10.75;2.33;;;;;;;;;;6246547;23;19996;-71
2022/06/12 11:39:57;;;;;;;12.82;2.67;;;;;;;;;;6246732;23;20351;-71
2022/06/12 11:42:32;;;;;;;12.25;1.95;;;;;;;;;;6246711;23;20008;-71
2022/06/12 11:45:06;;;;;;;13.25;2.25;;;;;;;;;;6246727;23;20017;-71
2022/06/12 11:47:31;;;;;;;9.00;2.20;;;;;;;;;;6246441;23;20410;-71
2022/06/12 11:50:12;;;;;;;11.80;1.92;;;;;;;;;;6246601;23;20034;-70
2022/06/12 11:52:49;;;;;;;8.93;2.25;;;;;;;;;;6237018;23;20010;-71
2022/06/12 11:55:38;;;;;;;8.55;2.15;;;;;;;;;;6233582;23;20070;-71
2022/06/12 11:58:12;;;;;;;6.80;2.00;;;;;;;;;;6223356;23;20031;-71
2022/06/12 12:01:13;;;;;;;9.00;2.10;;;;;;;;;;6240130;23;20012;-70
2022/06/12 12:03:38;;;;;;;11.82;2.45;;;;;;;;;;6114373;23;20438;-71
2022/06/12 12:06:22;;;;;;;10.05;2.50;;;;;;;;;;6215591;23;20103;-71
2022/06/12 12:08:48;;;;;;;11.02;2.50;;;;;;;;;;6240728;23;20004;-71
2022/06/12 12:11:29;;;;;;;7.35;1.95;;;;;;;;;;6239752;23;20424;-71
2022/06/12 12:13:56;;;;;;;10.68;1.90;;;;;;;;;;6238485;23;20382;-71
2022/06/12 12:16:31;;;;;;;10.55;2.17;;;;;;;;;;6214801;23;20034;-71
2022/06/12 12:19:17;;;;;;;13.18;2.53;;;;;;;;;;6241435;23;20008;-71
2022/06/12 12:21:52;;;;;;;8.82;2.40;;;;;;;;;;6177826;23;20011;-71
2022/06/12 12:24:24;;;;;;;10.57;2.30;;;;;;;;;;6241966;23;20039;-71
2022/06/12 12:26:50;;;;;;;9.38;2.38;;;;;;;;;;6241541;23;20003;-70
2022/06/12 12:29:18;;;;;;;8.52;2.00;;;;;;;;;;6241482;23;19988;-71
2022/06/12 12:31:45;;;;;;;12.48;2.35;;;;;;;;;;6240016;23;20101;-71
2022/06/12 12:34:11;;;;;;;10.90;2.30;;;;;;;;;;6240792;23;20012;-71
2022/06/12 12:42:22;;;;;;;12.88;2.88;;;;;;;;;;6238811;23;20019;-71
2022/06/12 12:44:47;;;;;;;7.35;2.22;;;;;;;;;;6241644;23;20019;-71
2022/06/12 12:47:17;;;;;;;10.85;2.58;;;;;;;;;;6241770;23;20858;-71
2022/06/12 12:49:43;;;;;;;10.20;2.05;;;;;;;;;;6241358;23;20416;-71
2022/06/12 12:52:16;;;;;;;7.57;2.38;;;;;;;;;;6238680;23;20012;-71
2022/06/12 12:54:41;;;;;;;7.97;2.70;;;;;;;;;;6241445;23;20030;-70
2022/06/12 12:57:06;;;;;;;6.70;1.70;;;;;;;;;;6245338;23;20420;-71
2022/06/12 12:59:37;;;;;;;10.38;2.40;;;;;;;;;;6245337;23;20031;-71
2022/06/12 13:02:15;;;;;;;8.80;2.00;;;;;;;;;;6245833;23;20004;-71
2022/06/12 13:04:41;;;;;;;12.07;2.15;;;;;;;;;;6245095;23;20023;-71
2022/06/12 13:07:09;;;;;;;10.05;2.50;;;;;;;;;;6245252;23;20004;-70
2022/06/12 13:09:47;;;;;;;9.38;2.05;;;;;;;;;;6245321;23;19992;-70
2022/06/12 13:12:27;;;;;;;9.65;2.47;;;;;;;;;;6245888;23;20003;-70
2022/06/12 13:14:58;;;;;;;8.80;1.95;;;;;;;;;;6245876;23;20424;-71
2022/06/12 13:17:56;;;;;;;17.08;2.38;;;;;;;;;;6245520;23;20008;-71
2022/06/12 13:20:36;;;;;;;8.05;2.17;;;;;;;;;;6178185;23;20012;-71
2022/06/12 13:23:10;;;;;;;11.30;2.40;;;;;;;;;;6234337;23;20016;-71
2022/06/12 13:25:35;;;;;;;7.68;1.95;;;;;;;;;;6244684;23;20004;-70
2022/06/12 13:28:01;;;;;;;11.45;2.42;;;;;;;;;;6244300;23;20062;-71
2022/06/12 13:30:32;;;;;;;7.60;1.70;;;;;;;;;;6243980;23;20027;-71
2022/06/12 13:33:17;;;;;;;6.85;2.65;;;;;;;;;;6244837;23;20000;-71
2022/06/12 13:35:47;;;;;;;7.68;1.75;;;;;;;;;;6245552;23;20016;-71
2022/06/12 13:38:17;;;;;;;6.65;2.00;;;;;;;;;;6244535;23;20070;-71
2022/06/12 13:40:43;;;;;;;11.93;2.50;;;;;;;;;;6218159;23;20008;-70
2022/06/12 13:43:09;;;;;;;9.80;2.10;;;;;;;;;;6244824;23;20456;-71
2022/06/12 13:45:34;;;;;;;7.80;2.00;;;;;;;;;;6243920;23;19996;-71
2022/06/12 13:47:59;;;;;;;7.63;1.90;;;;;;;;;;6245155;23;19997;-70
2022/06/12 13:50:28;;;;;;;9.43;2.47;;;;;;;;;;6245393;23;20008;-71
2022/06/12 13:52:56;;;;;;;7.63;2.22;;;;;;;;;;6245923;23;19992;-72
2022/06/12 13:55:40;;;;;;;8.27;2.22;;;;;;;;;;6246010;23;20293;-70
2022/06/12 13:58:06;;;;;;;;;;;;;;;;;;6246239;23;20080;-71
2022/06/12 14:00:34;;;;;;;11.10;2.00;;;;;;;;;;6246008;23;19927;-70
2022/06/12 14:03:00;;;;;;;10.13;2.30;;;;;;;;;;6245901;23;20024;-71
2022/06/12 14:05:30;;;;;;;10.50;1.90;;;;;;;;;;6245873;23;19993;-71
2022/06/12 14:07:56;;;;;;;9.70;2.35;;;;;;;;;;6245559;23;20071;-71
2022/06/12 14:10:54;;;;;;;11.80;2.47;;;;;;;;;;6246123;23;20051;-71
2022/06/12 14:13:33;;;;;;;12.38;2.20;;;;;;;;;;6178997;23;20356;-71
2022/06/12 14:16:06;;;;;;;7.95;2.10;;;;;;;;;;6245933;23;20376;-71
2022/06/12 14:18:31;;;;;;;10.27;2.40;;;;;;;;;;6245847;23;20004;-71
2022/06/12 14:21:17;;;;;;;10.05;2.53;;;;;;;;;;6245900;23;20004;-71
2022/06/12 14:23:46;;;;;;;13.35;1.92;;;;;;;;;;6245662;23;20012;-71
2022/06/12 14:26:13;;;;;;;9.05;1.63;;;;;;;;;;6245779;23;20015;-72
2022/06/12 14:28:38;;;;;;;9.75;2.58;;;;;;;;;;6245628;23;20435;-71
2022/06/12 14:31:15;;;;;;;10.68;2.28;;;;;;;;;;6245879;23;20001;-71
2022/06/12 14:33:44;;;;;;;8.63;1.92;;;;;;;;;;6245872;23;20005;-71
2022/06/12 14:36:28;;;;;;;13.93;2.70;;;;;;;;;;6246020;23;20364;-71
2022/06/12 14:38:54;;;;;;;9.07;1.80;;;;;;;;;;6245363;23;20012;-72
2022/06/12 14:41:21;;;;;;;10.48;2.00;;;;;;;;;;6245892;23;20053;-71
2022/06/12 14:43:46;;;;;;;8.90;2.08;;;;;;;;;;6246739;23;20015;-71
2022/06/12 14:46:32;;;;;;;9.32;2.42;;;;;;;;;;6247358;23;19996;-71
2022/06/12 14:48:57;;;;;;;11.75;2.35;;;;;;;;;;6246383;23;20066;-71
2022/06/12 14:51:22;;;;;;;9.63;1.95;;;;;;;;;;6247542;23;20447;-71
2022/06/12 14:53:48;;;;;;;5.07;1.80;;;;;;;;;;6246846;23;20470;-71
2022/06/12 14:56:18;;;;;;;11.18;2.10;;;;;;;;;;6246868;23;20008;-71
2022/06/12 14:58:43;;;;;;;8.32;2.30;;;;;;;;;;6247364;23;20008;-71
2022/06/12 15:01:10;;;;;;;7.53;2.08;;;;;;;;;;6246889;23;20059;-71
2022/06/12 15:03:35;;;;;;;10.13;1.95;;;;;;;;;;6246971;23;20011;-71
2022/06/12 15:06:01;;;;;;;10.05;1.95;;;;;;;;;;6247059;23;20008;-72
2022/06/12 15:08:26;;;;;;;8.45;2.17;;;;;;;;;;6247258;23;19996;-72
2022/06/12 15:10:52;;;;;;;10.95;2.40;;;;;;;;;;6247330;23;20320;-71